NY Terminal Aviation Weather Discussion (AFD) - Prepared: 742 AM EDT WED OCT 1 2014
AN UPPER LEVEL LOW PASSES OVER THE REGION TODAY AS A VERY MOIST
LOW LEVEL NE FLOW PREVAILS AT THE SURFACE. THIS RESULTS IN
MARGINAL VFR CONDITIONS THROUGH THE TAF FCST PERIOD...THOUGH AREAS
OF IFR ARE LIKELY ESPECIALLY THIS MORNING AND TONIGHT.

LIGHT RAIN WITH A FEW EMBEDDED SHOWERS FOR LONG ISLAND AND
SOUTHERN CT INTO THIS EVENING.

HIGH CONFIDENCE IN THE PERSISTENT NNE SFC FLOW THROUGH THE PERIOD.
AN OCNL GUST INTO THE UPPER TEENS FOR THE NY METRO EXPECTED THIS
AFTERNOON. GUSTS NOT INCLUDED IN THE TAFS DUE TO THE INFREQUENT
NATURE EXPECTED.

5 Day General Aviation Outlook:

.OUTLOOK FOR 12Z THURSDAY THROUGH SUNDAY...
.THU...MVFR CIGS IN THE AM...THEN VFR. NE WINDS 10-15 KT.
.FRI...VFR. LGT SE WND.
.SAT...RAIN - MVFR OR LOWER AT TIMES. SE WIND 10-15G20 KT.
.SUN...VFR.


NY Metro Terminal Aviation Weather Summary: (Explanation of Color Coding)
NOTE: All Wind Directions are TRUE (add 13 degrees for magnetic directions). Tail and Crosswind Calculations do account for the magnetic deviation of runways.

Click on the Airport Below for Specific Information at that Terminal

TAF Overview JFK TAF LGA TAF EWR TAF TEB TAF HPN TAF ISP TAF

Jump to AirSpace Impacts Section Condensed "lite" version of SPA page
**************************************************************************************
KJFK Terminal Weather: (Wind Directions Are True, Except Where Noted, ADD 13 degrees for Magnetic)

5MIN KJFK 011240Z 02010KT 10SM OVC013 17/14 A3002 -70 
     86 100 030/10 RMK AO2 $
5MIN KJFK 011235Z 01010KT 10SM OVC013 17/14 A3002 -70 
     86 100 030/10 RMK AO2 $
********************************************
****        MAGNETIC DIRECTIONS         ****
********************************************
KJFK 10/01/2014 12:47:13 GMT 020 09 KT
KJFK 10/01/2014 12:45:13 GMT 030 08 KT
KJFK 10/01/2014 12:43:13 GMT 020 08 KT
KJFK 10/01/2014 12:41:13 GMT 020 09 KT
KJFK 10/01/2014 12:39:13 GMT 020 10 KT
KJFK 10/01/2014 12:37:47 GMT 020 09 KT
KJFK 10/01/2014 12:35:47 GMT 020 10 KT
KJFK 10/01/2014 12:33:47 GMT 020 11 KT
KJFK 10/01/2014 12:31:47 GMT 020 11 KT
KJFK 10/01/2014 12:29:47 GMT 020 09 KT
SAUS70 KJFK 011200 RRX
METAR KJFK 011151Z 02010KT 10SM FEW007 OVC013 17/14 A3002 RMK AO2 DZE11
     SLP164 P0000 60000 70003 T01670144 10167 20167 53009 $
FTNA35 KJFK 011130 RRC
KJFK 011129Z 0112/0218 03008KT 5SM BR OVC012
     TEMPO 0112/0113 -RA BKN008
     FM011700 03013KT P6SM OVC015
     TEMPO 0118/0121 SCT015 OVC050
     FM020000 02012KT P6SM OVC012
     FM021600 02012KT P6SM OVC020
KJFK FCSTER COMMENTS: UN-FORECAST FLUCTUATIONS IN CIG CATEGORY
EXPECT THROUGH THE PERIOD. 

HIGH CONFIDENCE IN WIND FCST. 

jfk

JFK Hourly Forecast Temperature (C)

JFK Hourly TMPS
**************************************************************************************
KLGA Terminal Weather: (Wind Directions Are True, Except Where Noted, ADD 13 degrees for Magnetic)

5MIN KLGA 011240Z 03009KT 8SM -RA FEW007 OVC011 17/14 
     A3002 -60 86 200 040/09 RMK AO2 RAE01B18 P0000
5MIN KLGA 011235Z 03010KT 8SM -RA FEW007 OVC011 17/14 
     A3002 -60 86 200 050/10 RMK AO2 RAE01B18 P0000
********************************************
****        MAGNETIC DIRECTIONS         ****
********************************************
KLGA 10/01/2014 12:47:58 GMT 050 10 KT
KLGA 10/01/2014 12:45:59 GMT 040 09 KT
KLGA 10/01/2014 12:43:59 GMT 040 09 KT
KLGA 10/01/2014 12:41:59 GMT 050 09 KT
KLGA 10/01/2014 12:39:59 GMT 050 10 KT
KLGA 10/01/2014 12:37:59 GMT 050 10 KT
KLGA 10/01/2014 12:35:59 GMT 050 11 KT
KLGA 10/01/2014 12:33:58 GMT 040 10 KT
KLGA 10/01/2014 12:31:59 GMT 050 09 KT
KLGA 10/01/2014 12:29:59 GMT 060 09 KT
SPUS70 KLGA 011222
SPECI KLGA 011218Z 03008G17KT 8SM -RA FEW007 OVC011 17/14 A3002 RMK AO2
     RAE01B18 P0000
FTUS80 KLGA 011130 RRC
KLGA 011129Z 0112/0212 04012KT 4SM BR OVC012
      TEMPO 0112/0113 -RA BKN008
     FM011800 04014KT P6SM SCT015 OVC050
      TEMPO 0118/0121 SCT015 OVC050
     FM020100 02012KT P6SM OVC012
KLGA FCSTER COMMENTS: UN-FORECAST FLUCTUATIONS IN CIG CATEGORY
EXPECT THROUGH THE PERIOD. IFR MAY LAST BEYOND 13Z. 

HIGH CONFIDENCE IN WIND FCST THOUGH DIRECTION MAY SWING 20 DEGREES RIGHT
OF 040 MAGNETIC AT TIMES.

lga


**************************************************************************************

KEWR Terminal Weather: (Wind Directions Are True, Except Where Noted, ADD 13 degrees for Magnetic)

5MIN KEWR 011240Z 02009KT 8SM FEW008 BKN014 OVC028 
     17/14 A3003 -70 86 100 030/09 RMK AO2 RAE1156DZB09E23 P0000
5MIN KEWR 011235Z 02009KT 8SM FEW008 BKN014 OVC028 
     17/14 A3003 -70 86 100 030/09 RMK AO2 RAE1156DZB09E23 P0000
********************************************
****        MAGNETIC DIRECTIONS         ****
********************************************
KEWR 10/01/2014 12:47:07 GMT 030 08 KT
KEWR 10/01/2014 12:45:07 GMT 030 09 KT
KEWR 10/01/2014 12:43:29 GMT 030 07 KT
KEWR 10/01/2014 12:41:07 GMT 030 08 KT
KEWR 10/01/2014 12:39:07 GMT 030 10 KT
KEWR 10/01/2014 12:37:29 GMT 030 09 KT
KEWR 10/01/2014 12:35:07 GMT 030 08 KT
KEWR 10/01/2014 12:33:07 GMT 030 08 KT
KEWR 10/01/2014 12:31:29 GMT 030 08 KT
KEWR 10/01/2014 12:29:07 GMT 030 06 KT
SPUS70 KEWR 011232
SPECI KEWR 011229Z 02007KT 8SM FEW008 BKN014 OVC028 16/14 A3002 RMK AO2
     RAE1156DZB09E23 P0000
FTUS80 KEWR 011130 RRA
KEWR 011129Z 0112/0218 02008KT P6SM OVC015
     FM011900 02010KT P6SM SCT015 OVC050
     FM020200 01008KT P6SM OVC012
     FM021600 02010KT P6SM OVC020
KEWR FCSTER COMMENTS: UN-FORECAST FLUCTUATIONS IN CIG CATEGORY
EXPECT THROUGH THE PERIOD...THOUGH MODERATE CONFIDENCE IN VFR FOR
THE AFTN.

HIGH CONFIDENCE IN WIND FCST. 

ewr
Afternoon EWR Haze Potential Forecast: green
THE AFTERNOON KEWR HAZE POTENTIAL FORECAST IS GREEN...WHICH
IMPLIES  SLANT RANGE VISIBILITY 7SM OR GREATER OUTSIDE OF CLOUD.


******************************************************************************

KTEB Terminal Weather:
SAUS80 KTEB 011200 RRB
METAR KTEB 011151Z VRB06KT 10SM SCT015 OVC026 17/13 A3001 RMK AO2 SLP162
     T01720133 10172 20167 53009 $
FTUS80 KTEB 011130 RRF
KTEB 011129Z 0112/0212 01007KT P6SM OVC015
     FM011800 02010KT P6SM SCT015 OVC050
     FM020200 01008KT P6SM OVC012
KTEB FCSTER COMMENTS: UN-FORECAST FLUCTUATIONS IN CIG CATEGORY
EXPECT THROUGH THE PERIOD...THOUGH MODERATE CONFIDENCE IN VFR FOR
THE AFTN.

HIGH CONFIDENCE IN WIND FCST. 

teb

 


**************************************************************************************

KHPN Terminal Weather:
SAUS70 KHPN 011200 RRX
METAR KHPN 011156Z 02004KT 2 1/2SM -RA BR BKN008 OVC021 15/13 A3002 RMK
     AO2 SLP165 P0001 60007 70007 T01500133 10156 20150 51011
FTUS80 KHPN 011130 RRB
KHPN 011129Z 0112/0212 03006KT 3SM -RA OVC012
     FM012000 02008KT P6SM SCT015 OVC020
     FM020200 36010KT P6SM OVC012 AMD NOT SKED
KHPN FCSTER COMMENTS: UN-FORECAST FLUCTUATIONS IN CIG CATEGORY
EXPECT THROUGH THE PERIOD.

HPN


******************************************************************************

KISP Terminal Weather:
SAUS70 KISP 011200 RRX
METAR KISP 011156Z 02007KT 6SM BR BKN009 BKN016 OVC031 16/14 A2999 RMK
     AO2 DZE37 SLP154 P0000 60002 70002 T01560144 10161 20156
     51010
FTUS80 KISP 011130 RRC
KISP 011129Z 0112/0212 03008KT 4SM -RA BR BKN007 OVC012
     FM011400 03012KT 5SM -RA BR BKN008 OVC015
     FM011800 03012G18KT 6SM BR BKN008 OVC015
      TEMPO 0118/0120 -RA SCT008
     FM020200 02010KT P6SM OVC008
KISP FCSTER COMMENTS: UN-FORECAST FLUCTUATIONS IN CIG CATEGORY
EXPECT THROUGH THE PERIOD.

ISP

 


ZNY SWAP Season Information

(ZNY SWAP STATEMENT) (Click for PDF File) (ZNY BRIEFING) (Click for PDF File)

*******************************************************
***        NY AIR ROUTE TRAFFIC CONTROL CENTER      ***
***                DAILY SWAP STATEMENT             ***
*******************************************************
NY AIR ROUTE TRAFFIC CONTROL CENTER
DAILY SWAP STATEMENT
TUESDAY,  SEPTEMBER 30, 2014
SWAP IS POSSIBLE AFTER 19Z.
SCT LO TOPPED TS WILL FORM IN ERN ZOB AFTER 18Z AND WILL MOV EWD 
THRU THE DAY.  TS TOPS MAINLY BLW FL310 WITH ISOL HIGHER.  TS MAY 
HAVE IMPACTS TO J60 THRU Q42 WITHIN AND TO THE WEST OF ZNY AIRSPACE.
ADDT'L INFO:
AZEZU-PAEPR-HANRI(L453-M201):  NO IMPACTS EXPECTED. 
DITCH: NO IMPACTS EXPECTED.
EAST GATES: NO IMPACTS EXPECTED.
TOMORROW MORNINGS SWAP OUTLOOK:  SWAP IS NOT EXPECTED.
$$
KS









N90 AirSpace Impacts

N90 ZNY Gate TSTM Forecast    SWAP Day One Forecast

SWAP Day One Forecast    SWAP Day Two Outlook

National Collaborative Convective Forecast Product (CCFP) Forecasts (Mar-Oct)


Vertical Wind Profile
Untitled Document